Time;durP1;ratioP1;P1;durP2;ratioP2;P2;SDS_P1;SDS_P2;PMS_P1;PMS_P2;Temp;Humidity;BMP_temperature;BMP_pressure;BME280_temperature;BME280_humidity;BME280_pressure;Samples;Min_cycle;Max_cycle;Signal;HPM_P1;HPM_P2
2022/08/02 00:00:09;;;;;;;3.30;2.80;;;;;;;24.16;52.15;100030.38;4985233;28;20041;-85
2022/08/02 00:02:36;;;;;;;5.35;3.05;;;;;;;24.16;52.12;100028.47;4993614;28;20930;-86
2022/08/02 00:05:05;;;;;;;3.55;2.97;;;;;;;24.19;51.96;100035.34;5000013;28;20044;-89
2022/08/02 00:07:33;;;;;;;4.20;2.65;;;;;;;24.16;52.29;100031.19;4985582;28;20054;-90
2022/08/02 00:10:08;;;;;;;7.20;3.08;;;;;;;24.14;52.14;100024.31;4977514;28;20042;-90
2022/08/02 00:12:38;;;;;;;3.97;2.85;;;;;;;24.16;52.21;100020.34;4967724;28;20520;-85
2022/08/02 00:15:06;;;;;;;4.53;2.67;;;;;;;24.19;52.12;100016.34;4967506;28;20043;-83
2022/08/02 00:17:32;;;;;;;6.68;3.13;;;;;;;24.22;52.18;100014.06;4983343;28;20137;-85
2022/08/02 00:20:00;;;;;;;4.25;3.08;;;;;;;24.26;52.17;100012.53;4998544;28;20054;-83
2022/08/02 00:22:27;;;;;;;4.35;3.10;;;;;;;24.27;52.17;100016.94;4999609;28;20446;-83
2022/08/02 00:24:54;;;;;;;3.70;2.88;;;;;;;24.15;52.45;100015.97;4965209;28;20435;-83
2022/08/02 00:27:21;;;;;;;4.65;3.40;;;;;;;24.16;52.72;100016.81;4999897;28;20054;-86
2022/08/02 00:29:49;;;;;;;4.88;2.70;;;;;;;24.07;53.23;100013.53;4966486;28;20046;-83
2022/08/02 00:32:22;;;;;;;3.92;2.90;;;;;;;24.03;53.69;100020.44;4982147;28;20451;-85
2022/08/02 00:34:49;;;;;;;3.45;2.70;;;;;;;23.96;53.83;100016.94;4993404;28;20096;-83
2022/08/02 00:37:17;;;;;;;4.63;3.05;;;;;;;23.96;53.80;100019.66;4952318;28;20487;-85
2022/08/02 00:39:44;;;;;;;3.50;2.60;;;;;;;23.92;53.71;100016.56;4986066;28;20082;-83
2022/08/02 00:42:15;;;;;;;5.68;3.08;;;;;;;23.86;53.80;100024.72;4978655;28;20049;-85
2022/08/02 00:44:42;;;;;;;4.00;2.90;;;;;;;23.93;53.13;100018.22;4963658;28;20129;-83
2022/08/02 00:47:09;;;;;;;3.83;2.92;;;;;;;23.93;53.17;100030.94;4965647;28;20137;-88
2022/08/02 00:49:36;;;;;;;3.30;2.90;;;;;;;23.93;53.55;100033.66;4970889;28;20046;-83
2022/08/02 00:52:03;;;;;;;3.20;2.88;;;;;;;23.90;53.91;100031.38;4961904;28;20049;-88
2022/08/02 00:54:30;;;;;;;6.93;3.42;;;;;;;23.83;54.29;100034.94;4953350;28;20375;-89
2022/08/02 00:56:56;;;;;;;3.28;2.95;;;;;;;23.75;54.18;100032.50;4981181;28;20379;-88
2022/08/02 00:59:23;;;;;;;3.60;3.03;;;;;;;23.81;53.83;100034.38;4935499;28;20042;-85
2022/08/02 01:01:51;;;;;;;4.10;3.15;;;;;;;23.79;53.54;100028.31;4980845;28;20054;-90
2022/08/02 01:04:26;;;;;;;5.22;3.30;;;;;;;23.82;53.58;100036.00;4917664;28;20398;-90
2022/08/02 01:06:58;;;;;;;5.28;3.10;;;;;;;23.87;53.33;100029.13;4945503;28;20093;-85
2022/08/02 01:09:26;;;;;;;4.50;3.30;;;;;;;23.91;53.06;100033.03;4966414;28;20058;-85
2022/08/02 01:11:53;;;;;;;5.13;3.53;;;;;;;23.89;52.98;100032.41;4967715;28;20042;-83
2022/08/02 01:14:25;;;;;;;5.43;3.28;;;;;;;23.85;53.12;100034.75;4974644;28;20046;-83
2022/08/02 01:16:59;;;;;;;4.72;3.40;;;;;;;23.80;53.28;100042.72;4915600;28;20119;-83
2022/08/02 01:19:37;;;;;;;4.80;3.30;;;;;;;23.74;53.26;100038.16;4991116;28;20050;-83
2022/08/02 01:22:31;;;;;;;4.18;3.78;;;;;;;23.66;53.29;100046.50;4991341;28;20586;-86
2022/08/02 01:25:50;;;;;;;6.38;3.47;;;;;;;23.64;53.28;100051.31;4916202;28;20043;-86
2022/08/02 01:28:42;;;;;;;7.50;3.30;;;;;;;23.51;53.77;100053.03;4920316;28;20043;-85
2022/08/02 01:31:12;;;;;;;4.30;3.90;;;;;;;23.70;52.96;100047.75;4919252;28;20046;-83
2022/08/02 01:33:43;;;;;;;4.70;3.42;;;;;;;23.68;53.22;100050.66;4995202;28;20038;-83
2022/08/02 01:36:13;;;;;;;4.32;3.20;;;;;;;23.66;53.38;100055.47;4953951;28;20054;-83
2022/08/02 01:38:43;;;;;;;5.53;3.80;;;;;;;23.59;53.50;100054.69;4968175;28;20038;-83
2022/08/02 01:41:20;;;;;;;5.50;3.67;;;;;;;23.53;53.65;100055.53;4981970;28;20046;-91
2022/08/02 01:43:49;;;;;;;5.70;3.75;;;;;;;23.50;53.89;100062.19;4985828;28;20120;-83
2022/08/02 01:46:17;;;;;;;5.25;3.67;;;;;;;23.46;53.66;100063.69;4995646;28;22602;-85
2022/08/02 01:48:45;;;;;;;5.93;3.67;;;;;;;23.45;53.60;100061.19;4971902;28;20042;-85
2022/08/02 01:51:14;;;;;;;4.25;3.55;;;;;;;23.42;54.04;100067.88;4981907;28;20050;-86
2022/08/02 01:53:43;;;;;;;4.72;3.55;;;;;;;23.39;53.83;100066.41;4978435;28;20046;-85
2022/08/02 01:56:11;;;;;;;5.18;3.55;;;;;;;23.41;53.96;100060.81;4970429;28;20112;-83
2022/08/02 01:58:39;;;;;;;4.47;3.70;;;;;;;23.47;53.98;100064.53;4983066;28;20042;-84
2022/08/02 02:01:06;;;;;;;5.25;3.75;;;;;;;23.45;54.02;100067.44;5007557;28;20066;-83
2022/08/02 02:03:34;;;;;;;6.10;3.45;;;;;;;23.40;54.37;100067.25;4999040;28;20410;-83
2022/08/02 02:06:08;;;;;;;5.53;3.55;;;;;;;23.41;54.19;100068.94;5001982;28;20662;-89
2022/08/02 02:08:38;;;;;;;4.93;3.70;;;;;;;23.29;54.33;100074.16;4980257;28;20121;-83
2022/08/02 02:11:05;;;;;;;8.40;4.03;;;;;;;23.26;54.50;100063.75;4975239;28;20068;-89
2022/08/02 02:13:52;;;;;;;5.07;3.90;;;;;;;23.29;54.13;100065.22;4950194;28;20039;-83
2022/08/02 02:16:21;;;;;;;4.10;3.70;;;;;;;23.22;54.44;100067.94;4937697;28;20067;-85
2022/08/02 02:18:47;;;;;;;5.13;3.60;;;;;;;23.27;54.40;100064.59;4936507;28;20047;-83
2022/08/02 02:21:15;;;;;;;4.53;3.53;;;;;;;23.29;54.20;100062.50;4905862;28;20043;-83
2022/08/02 02:23:42;;;;;;;4.90;4.03;;;;;;;23.26;54.42;100065.66;4942936;28;20047;-85
2022/08/02 02:26:12;;;;;;;5.95;3.85;;;;;;;23.19;54.75;100058.34;4944231;28;20046;-86
2022/08/02 02:28:39;;;;;;;4.82;3.83;;;;;;;23.20;54.79;100056.47;4922456;28;20050;-85
2022/08/02 02:31:08;;;;;;;6.57;3.97;;;;;;;23.17;55.13;100052.31;4928364;28;20046;-89
2022/08/02 02:33:40;;;;;;;4.78;3.65;;;;;;;23.13;55.15;100052.97;4926175;28;20047;-83
2022/08/02 02:36:07;;;;;;;10.80;4.47;;;;;;;23.13;55.25;100042.13;4959473;28;20067;-85
2022/08/02 02:38:35;;;;;;;5.13;3.42;;;;;;;23.14;54.91;100044.63;4935692;28;20051;-86
2022/08/02 02:41:03;;;;;;;5.18;3.90;;;;;;;23.08;55.12;100036.53;4937087;28;20047;-83
2022/08/02 02:43:31;;;;;;;6.45;4.38;;;;;;;23.10;55.05;100039.81;4926939;28;20066;-89
2022/08/02 02:45:59;;;;;;;6.28;4.22;;;;;;;23.08;55.21;100041.94;4943479;28;20637;-90
2022/08/02 02:48:26;;;;;;;5.63;4.22;;;;;;;23.11;54.88;100047.75;4980977;28;20101;-83
2022/08/02 02:50:53;;;;;;;4.38;3.97;;;;;;;23.13;54.85;100042.13;4981953;28;20049;-86
2022/08/02 02:53:21;;;;;;;8.40;4.35;;;;;;;23.07;54.89;100046.50;4995975;28;20054;-86
2022/08/02 02:55:48;;;;;;;5.63;4.07;;;;;;;23.01;54.97;100043.84;4964558;28;20060;-85
2022/08/02 02:58:30;;;;;;;5.20;4.07;;;;;;;23.02;54.77;100050.91;4949363;28;20043;-83
2022/08/02 03:03:45;;;;;;;6.95;4.18;;;;;;;22.92;55.54;100056.72;4984331;28;20073;-85
2022/08/02 03:06:13;;;;;;;9.23;4.40;;;;;;;22.95;55.50;100057.13;4998628;28;20379;-85
2022/08/02 03:08:43;;;;;;;5.82;4.43;;;;;;;22.81;56.03;100057.38;4954393;28;20046;-83
2022/08/02 03:11:11;;;;;;;5.65;4.30;;;;;;;22.85;55.96;100058.63;4986614;28;20042;-86
2022/08/02 03:13:39;;;;;;;6.47;4.30;;;;;;;22.82;55.88;100067.13;4954863;28;20137;-83
2022/08/02 03:16:06;;;;;;;6.50;4.50;;;;;;;22.81;55.73;100060.91;4978092;28;20096;-82
2022/08/02 03:18:38;;;;;;;8.60;4.40;;;;;;;22.65;56.62;100055.94;4986447;28;20046;-85
2022/08/02 03:21:10;;;;;;;7.78;4.63;;;;;;;22.62;56.70;100059.03;4998416;28;20042;-85
2022/08/02 03:23:40;;;;;;;6.43;4.35;;;;;;;22.78;56.21;100064.03;4967481;28;20395;-86
2022/08/02 03:26:08;;;;;;;7.00;4.90;;;;;;;22.74;56.22;100069.03;4979852;28;20055;-90
2022/08/02 03:28:35;;;;;;;6.38;4.68;;;;;;;22.75;56.06;100075.28;4989749;28;20658;-90
2022/08/02 03:31:02;;;;;;;6.70;4.55;;;;;;;22.74;56.36;100077.16;4977790;28;20084;-85
2022/08/02 03:33:29;;;;;;;5.68;5.05;;;;;;;22.82;56.09;100077.97;5014662;28;20055;-83
2022/08/02 03:35:58;;;;;;;4.88;4.05;;;;;;;22.76;56.20;100080.47;5017631;28;20093;-82
2022/08/02 03:38:27;;;;;;;6.72;4.35;;;;;;;22.85;55.96;100077.56;4983366;28;20042;-83
2022/08/02 03:40:56;;;;;;;7.25;4.70;;;;;;;22.85;56.09;100080.28;4980319;28;20093;-84
2022/08/02 03:43:24;;;;;;;5.55;4.82;;;;;;;22.80;56.58;100078.19;4978283;28;20697;-83
2022/08/02 03:45:55;;;;;;;5.40;4.03;;;;;;;22.83;56.52;100085.91;4949404;28;20042;-79
2022/08/02 03:48:22;;;;;;;5.95;4.30;;;;;;;22.76;56.46;100079.66;4975039;28;20050;-83
2022/08/02 03:51:01;;;;;;;5.65;3.90;;;;;;;22.74;56.86;100077.16;5013104;28;20577;-83
2022/08/02 03:53:28;;;;;;;6.00;4.22;;;;;;;22.75;57.25;100076.13;4985456;28;20470;-82
2022/08/02 03:55:55;;;;;;;8.10;4.38;;;;;;;22.76;57.09;100085.88;4969073;28;20054;-83
2022/08/02 03:58:22;;;;;;;5.03;4.22;;;;;;;22.69;57.20;100090.47;4997762;28;20057;-82
2022/08/02 04:00:51;;;;;;;8.98;4.82;;;;;;;22.69;57.68;100081.53;4986550;28;20449;-84
2022/08/02 04:03:18;;;;;;;7.70;4.57;;;;;;;22.67;57.22;100089.88;4980213;28;20433;-80
2022/08/02 04:05:46;;;;;;;7.18;5.00;;;;;;;22.59;57.23;100087.34;4999902;28;20505;-82
2022/08/02 04:08:30;;;;;;;6.28;4.18;;;;;;;22.56;57.34;100085.06;4981436;28;20050;-84
2022/08/02 04:13:48;;;;;;;6.47;4.68;;;;;;;22.48;57.24;100083.41;4994053;28;20549;-84
2022/08/02 04:16:21;;;;;;;5.80;4.60;;;;;;;22.37;57.54;100085.91;4950195;28;20065;-82
2022/08/02 04:18:55;;;;;;;6.95;4.65;;;;;;;22.30;57.86;100084.00;4959713;28;20062;-84
2022/08/02 04:21:26;;;;;;;8.52;4.70;;;;;;;22.42;57.54;100084.25;4970556;28;20120;-84
2022/08/02 04:24:14;;;;;;;5.43;4.78;;;;;;;22.52;57.25;100090.06;4958742;28;20066;-84
2022/08/02 04:26:45;;;;;;;7.70;4.72;;;;;;;22.56;57.13;100082.34;4930782;28;20050;-79
2022/08/02 04:29:17;;;;;;;4.88;4.22;;;;;;;22.56;57.41;100082.34;4952013;28;20122;-84
2022/08/02 04:31:44;;;;;;;7.63;4.85;;;;;;;23.06;57.40;100088.19;4968912;28;20081;-83
2022/08/02 04:34:11;;;;;;;7.15;4.93;;;;;;;23.53;56.02;100077.19;4968311;28;20522;-80
2022/08/02 04:36:42;;;;;;;5.10;4.47;;;;;;;23.95;54.67;100089.34;5012924;28;20402;-84
2022/08/02 04:39:09;;;;;;;7.05;5.00;;;;;;;24.43;53.81;100093.44;4988389;28;20061;-83
2022/08/02 04:41:42;;;;;;;5.53;5.00;;;;;;;24.13;54.02;100095.94;4982993;28;20061;-79
2022/08/02 04:44:10;;;;;;;7.28;5.40;;;;;;;23.89;54.49;100094.78;5012553;28;20447;-83
2022/08/02 04:46:38;;;;;;;6.55;4.88;;;;;;;23.52;55.45;100099.94;4976299;28;20062;-85
2022/08/02 04:49:05;;;;;;;6.47;5.15;;;;;;;23.33;56.08;100102.50;4987715;28;20407;-80
2022/08/02 04:51:37;;;;;;;8.07;5.68;;;;;;;23.12;56.87;100114.41;4998644;28;20077;-82
2022/08/02 04:54:09;;;;;;;6.30;5.05;;;;;;;22.98;57.29;100120.91;5003379;28;20096;-83
2022/08/02 04:56:38;;;;;;;5.88;4.88;;;;;;;22.91;57.60;100120.06;4968474;28;20495;-82
2022/08/02 04:59:05;;;;;;;6.95;5.53;;;;;;;22.95;57.58;100118.59;4941281;28;20122;-84
2022/08/02 05:01:34;;;;;;;5.93;5.32;;;;;;;22.86;57.59;100120.66;4947703;28;20051;-84
2022/08/02 05:04:02;;;;;;;7.53;5.78;;;;;;;22.93;57.24;100115.25;4966484;28;20078;-83
2022/08/02 05:06:28;;;;;;;9.35;5.80;;;;;;;22.95;57.24;100114.00;4965059;28;20142;-79
2022/08/02 05:08:55;;;;;;;7.47;5.50;;;;;;;23.02;57.05;100116.72;4948200;28;20043;-84
2022/08/02 05:11:23;;;;;;;7.88;5.30;;;;;;;23.02;56.97;100116.72;4977000;28;20108;-84
2022/08/02 05:14:01;;;;;;;6.47;5.40;;;;;;;23.07;56.73;100116.94;5011607;28;20517;-85
2022/08/02 05:16:30;;;;;;;6.20;5.15;;;;;;;23.02;56.87;100114.00;4963317;28;20053;-83
2022/08/02 05:19:02;;;;;;;6.00;5.40;;;;;;;22.91;56.96;100120.06;4982079;28;20044;-82
2022/08/02 05:21:30;;;;;;;6.80;5.38;;;;;;;22.97;56.73;100119.22;4976646;28;20039;-84
2022/08/02 05:23:57;;;;;;;7.55;5.30;;;;;;;22.92;56.46;100111.72;4994057;28;20066;-80
2022/08/02 05:26:26;;;;;;;5.93;5.18;;;;;;;22.91;56.80;100111.94;4966146;28;20061;-79
2022/08/02 05:28:52;;;;;;;8.45;5.63;;;;;;;23.00;56.78;100117.97;4980917;28;20049;-79
2022/08/02 05:31:21;;;;;;;6.97;5.30;;;;;;;23.03;56.57;100114.88;4979839;28;20466;-84
2022/08/02 05:33:51;;;;;;;9.13;5.63;;;;;;;22.93;56.95;100117.97;4986611;28;20046;-80
2022/08/02 05:36:17;;;;;;;5.97;5.38;;;;;;;23.02;57.09;100118.59;4997213;28;20069;-80
2022/08/02 05:38:49;;;;;;;6.53;4.95;;;;;;;23.06;57.19;100117.16;4976630;28;20054;-83
2022/08/02 05:41:18;;;;;;;8.07;5.72;;;;;;;23.19;56.96;100122.53;4978137;28;20042;-82
2022/08/02 05:43:46;;;;;;;8.85;5.43;;;;;;;23.23;56.71;100122.94;4981662;28;20049;-84
2022/08/02 05:46:13;;;;;;;11.43;5.53;;;;;;;23.34;56.24;100122.31;4978206;28;20129;-79
2022/08/02 05:48:39;;;;;;;5.43;4.88;;;;;;;23.39;56.15;100117.91;4964661;28;20049;-79
2022/08/02 05:51:11;;;;;;;7.55;5.30;;;;;;;23.42;56.92;100122.06;4968918;28;20477;-79
2022/08/02 05:53:49;;;;;;;7.97;5.10;;;;;;;23.34;56.74;100128.56;4999029;28;20100;-83
2022/08/02 05:56:24;;;;;;;7.32;5.35;;;;;;;23.45;56.47;100123.53;4962780;28;20046;-79
2022/08/02 05:59:23;;;;;;;8.57;5.35;;;;;;;23.48;56.35;100125.81;4989437;28;20109;-87
2022/08/02 06:02:42;;;;;;;5.38;4.78;;;;;;;23.41;56.55;100131.25;4975426;28;21153;-84
2022/08/02 06:05:20;;;;;;;6.95;5.20;;;;;;;23.58;55.82;100116.19;4906925;28;20089;-85
2022/08/02 06:07:48;;;;;;;7.43;5.43;;;;;;;23.65;55.72;100118.88;4964634;28;20049;-85
2022/08/02 06:11:08;;;;;;;8.05;5.22;;;;;;;23.42;56.72;100121.25;5005269;28;20911;-86
2022/08/02 06:13:35;;;;;;;8.73;5.43;;;;;;;23.58;55.90;100118.06;4922348;28;20446;-87
2022/08/02 06:16:02;;;;;;;8.23;5.53;;;;;;;23.60;55.74;100111.38;4946920;28;20483;-84
2022/08/02 06:18:30;;;;;;;6.60;5.15;;;;;;;23.55;56.24;100118.50;4966457;28;20050;-84
2022/08/02 06:21:22;;;;;;;6.72;5.53;;;;;;;23.57;56.46;100121.81;4981236;28;20112;-86
2022/08/02 06:24:09;;;;;;;5.65;5.05;;;;;;;23.76;55.96;100125.53;4900204;28;20042;-87
2022/08/02 06:26:36;;;;;;;9.57;5.22;;;;;;;23.76;55.79;100117.38;4954748;28;20046;-86
2022/08/02 06:29:03;;;;;;;7.53;4.85;;;;;;;23.75;55.81;100116.56;4965515;28;20502;-86
2022/08/02 06:31:30;;;;;;;5.65;5.05;;;;;;;23.85;55.95;100126.94;4957331;28;20478;-83
2022/08/02 06:33:57;;;;;;;7.68;5.18;;;;;;;23.85;55.74;100136.97;4972582;28;20070;-82
2022/08/02 06:36:41;;;;;;;10.13;5.78;;;;;;;23.86;55.39;100139.44;4964211;28;20053;-84
2022/08/02 06:39:31;;;;;;;7.72;5.53;;;;;;;23.80;55.06;100134.91;5000229;28;20569;-87
2022/08/02 06:42:02;;;;;;;7.05;5.10;;;;;;;23.83;54.62;100131.75;4957508;28;20125;-86
2022/08/02 06:44:44;;;;;;;7.78;5.07;;;;;;;23.90;53.84;100124.44;4963294;28;20042;-83
2022/08/02 06:47:16;;;;;;;14.23;5.60;;;;;;;23.99;54.25;100125.84;4951265;28;20042;-87
2022/08/02 06:49:43;;;;;;;6.97;5.03;;;;;;;24.04;54.19;100128.75;4989939;28;20364;-87
2022/08/02 06:52:32;;;;;;;5.55;4.72;;;;;;;23.94;53.53;100128.38;4955998;28;20047;-84
2022/08/02 06:55:00;;;;;;;9.00;5.32;;;;;;;24.07;53.79;100129.34;4985581;28;21678;-83
2022/08/02 06:57:29;;;;;;;5.50;4.50;;;;;;;24.07;53.46;100123.91;4986325;28;20046;-84
2022/08/02 07:00:48;;;;;;;5.70;4.88;;;;;;;24.02;53.60;100124.59;4962632;28;20046;-86
2022/08/02 07:03:15;;;;;;;6.93;4.90;;;;;;;24.20;53.29;100126.56;4946361;28;20430;-85
2022/08/02 07:05:46;;;;;;;6.43;5.15;;;;;;;24.32;53.39;100132.13;4986371;28;20518;-86
2022/08/02 07:08:14;;;;;;;7.05;5.38;;;;;;;24.37;52.42;100124.97;4964228;28;20050;-86
2022/08/02 07:10:41;;;;;;;9.55;5.65;;;;;;;24.40;52.33;100126.41;4947986;28;20371;-84
2022/08/02 07:17:43;;;;;;;6.53;4.43;;;;;;;24.36;52.08;100122.50;4960385;28;20414;-84
2022/08/02 07:20:12;;;;;;;6.18;4.38;;;;;;;24.36;51.65;100122.50;4936210;28;20058;-86
2022/08/02 07:22:42;;;;;;;6.43;4.75;;;;;;;24.41;51.99;100120.78;4938950;28;20043;-86
2022/08/02 07:25:09;;;;;;;7.28;5.38;;;;;;;24.41;51.83;100123.50;4946771;28;20054;-87
2022/08/02 07:27:35;;;;;;;5.35;4.55;;;;;;;24.50;51.87;100125.97;4965275;28;20078;-89
2022/08/02 07:30:04;;;;;;;6.95;4.63;;;;;;;24.55;51.29;100129.72;4936811;28;20045;-87
2022/08/02 07:32:31;;;;;;;7.70;3.90;;;;;;;24.58;51.21;100120.28;4923108;28;20042;-83
2022/08/02 07:34:58;;;;;;;4.95;3.72;;;;;;;24.62;51.27;100124.22;4967983;28;20054;-85
2022/08/02 07:37:33;;;;;;;6.90;4.75;;;;;;;24.64;51.20;100127.53;4963430;28;20051;-86
2022/08/02 07:40:20;;;;;;;8.20;3.95;;;;;;;24.66;50.91;100129.00;4926585;28;20055;-84
2022/08/02 07:42:51;;;;;;;5.95;4.25;;;;;;;24.66;50.55;100131.72;4950205;28;20046;-86
2022/08/02 07:45:22;;;;;;;5.00;4.05;;;;;;;24.66;50.89;100120.84;4919645;28;20042;-83
2022/08/02 07:47:49;;;;;;;6.00;3.60;;;;;;;24.74;50.61;100121.63;4954185;28;20374;-85
2022/08/02 07:50:17;;;;;;;5.30;4.20;;;;;;;24.76;50.43;100117.63;4949377;28;20058;-83
2022/08/02 07:52:45;;;;;;;6.15;3.95;;;;;;;24.79;50.29;100117.19;5003176;28;20042;-83
2022/08/02 07:55:12;;;;;;;5.55;4.60;;;;;;;24.80;50.10;100121.56;4964218;28;20100;-85
2022/08/02 07:57:40;;;;;;;5.82;4.45;;;;;;;24.83;50.16;100120.28;4970076;28;20442;-87
2022/08/02 08:00:12;;;;;;;;;;;;;;;24.62;50.06;100119.63;4986075;28;20042;-85
2022/08/02 08:02:39;;;;;;;6.40;3.70;;;;;;;24.82;50.32;100124.06;4991310;28;19984;-85
2022/08/02 08:05:06;;;;;;;5.80;3.92;;;;;;;24.84;49.99;100117.34;4998574;28;20046;-87
2022/08/02 08:07:33;;;;;;;7.72;4.32;;;;;;;24.85;49.68;100116.28;4969681;28;20133;-83
2022/08/02 08:10:00;;;;;;;7.88;3.75;;;;;;;24.88;49.25;100118.56;4948693;28;20394;-88
2022/08/02 08:12:30;;;;;;;4.50;3.80;;;;;;;24.87;48.85;100116.91;4964640;28;20050;-88
2022/08/02 08:14:57;;;;;;;3.33;3.03;;;;;;;24.94;49.42;100113.31;4952202;28;20031;-85
2022/08/02 08:17:23;;;;;;;5.63;3.60;;;;;;;25.00;49.02;100120.56;4945276;28;20399;-88
2022/08/02 08:19:50;;;;;;;3.58;3.28;;;;;;;24.94;48.69;100119.56;4948740;28;20670;-86
2022/08/02 08:22:19;;;;;;;3.83;3.42;;;;;;;24.96;48.54;100105.75;4953010;28;20133;-85
2022/08/02 08:24:48;;;;;;;5.57;3.55;;;;;;;25.00;48.25;100102.34;4972896;28;20117;-89
2022/08/02 08:27:16;;;;;;;3.38;3.08;;;;;;;25.03;48.37;100095.66;4972194;28;20129;-88
2022/08/02 08:29:44;;;;;;;3.55;3.25;;;;;;;25.08;48.33;100109.38;5003960;28;20054;-88
2022/08/02 08:32:12;;;;;;;3.65;3.30;;;;;;;25.09;48.76;100103.75;4947438;28;20050;-88
2022/08/02 08:34:44;;;;;;;6.57;3.30;;;;;;;25.16;48.15;100106.41;4967226;28;20407;-84
2022/08/02 08:37:14;;;;;;;3.55;3.25;;;;;;;25.16;48.21;100100.97;4954775;28;20047;-84
2022/08/02 08:39:48;;;;;;;3.90;3.58;;;;;;;25.17;47.96;100099.94;4969054;28;20074;-84
2022/08/02 08:42:23;;;;;;;5.93;3.40;;;;;;;25.20;47.92;100104.09;4932827;28;20074;-88
2022/08/02 08:44:50;;;;;;;4.38;3.22;;;;;;;25.24;48.11;100102.56;4981399;28;20047;-89
2022/08/02 08:47:17;;;;;;;3.53;3.22;;;;;;;25.28;48.11;100107.31;4992907;28;20510;-86
2022/08/02 08:49:47;;;;;;;4.00;3.22;;;;;;;25.32;48.24;100111.28;4967550;28;20046;-84
2022/08/02 08:52:20;;;;;;;5.00;3.88;;;;;;;25.35;47.77;100107.25;4998922;28;20042;-87
2022/08/02 08:54:48;;;;;;;4.20;3.38;;;;;;;25.41;47.87;100089.22;4970102;28;20050;-87
2022/08/02 08:57:16;;;;;;;4.38;3.42;;;;;;;25.44;47.82;100094.19;4996806;28;20058;-87
2022/08/02 08:59:44;;;;;;;3.90;3.60;;;;;;;25.45;47.54;100099.41;4966234;28;20529;-85
2022/08/02 09:02:12;;;;;;;3.85;3.33;;;;;;;25.47;47.40;100091.88;4969655;28;20459;-84
2022/08/02 09:04:48;;;;;;;4.85;3.40;;;;;;;25.49;47.23;100086.19;4996272;28;20391;-84
2022/08/02 09:07:21;;;;;;;4.18;3.70;;;;;;;25.53;46.80;100093.66;4956165;28;20050;-84
2022/08/02 09:09:48;;;;;;;4.13;3.53;;;;;;;25.49;46.70;100091.63;5018664;28;20042;-88
2022/08/02 09:12:16;;;;;;;4.95;3.75;;;;;;;25.51;46.79;100081.34;4983002;28;20068;-85
2022/08/02 09:14:45;;;;;;;6.32;3.50;;;;;;;25.53;46.90;100085.50;4982730;28;20038;-86
2022/08/02 09:17:16;;;;;;;3.78;3.38;;;;;;;25.55;46.71;100086.13;4982304;28;20042;-89
2022/08/02 09:19:43;;;;;;;6.88;4.28;;;;;;;25.57;46.67;100088.63;4973125;28;20133;-85
2022/08/02 09:22:19;;;;;;;6.65;3.80;;;;;;;25.55;46.35;100085.28;4995882;28;20054;-87
2022/08/02 09:24:47;;;;;;;4.55;4.15;;;;;;;25.60;45.78;100087.34;5000452;28;20096;-85
2022/08/02 09:27:19;;;;;;;3.67;3.28;;;;;;;25.61;46.28;100092.53;4952903;28;20061;-86
2022/08/02 09:29:52;;;;;;;6.30;3.92;;;;;;;25.63;46.05;100089.59;4954176;28;20138;-86
2022/08/02 09:33:30;;;;;;;5.28;4.13;;;;;;;25.55;45.12;100093.44;4982394;28;20042;-85
2022/08/02 09:36:12;;;;;;;3.50;3.20;;;;;;;25.63;45.86;100090.41;4915765;28;20050;-87
2022/08/02 09:38:40;;;;;;;5.53;3.58;;;;;;;25.73;46.01;100074.38;4904493;28;20042;-84
2022/08/02 09:41:23;;;;;;;3.42;3.10;;;;;;;25.72;45.91;100094.50;4969902;28;20050;-89
2022/08/02 09:43:51;;;;;;;6.63;4.20;;;;;;;25.84;45.66;100088.25;4974346;28;20055;-89
2022/08/02 09:46:39;;;;;;;3.65;3.35;;;;;;;25.81;45.16;100091.44;4954460;28;20049;-89
2022/08/02 09:49:08;;;;;;;3.97;3.60;;;;;;;25.83;45.24;100083.91;4956438;28;20038;-89
2022/08/02 09:51:48;;;;;;;3.92;3.17;;;;;;;25.80;45.04;100082.47;4968343;28;20112;-89
2022/08/02 09:54:28;;;;;;;6.68;3.85;;;;;;;25.84;44.77;100078.19;4969305;28;20043;-90
2022/08/02 10:01:32;;;;;;;5.13;3.53;;;;;;;25.84;44.75;100071.94;4953636;28;20034;-86
2022/08/02 10:04:06;;;;;;;4.70;3.13;;;;;;;25.90;45.01;100054.72;4942733;28;20047;-86
2022/08/02 10:06:33;;;;;;;4.60;3.50;;;;;;;25.93;44.79;100052.38;4948642;28;20046;-87
2022/08/02 10:13:34;;;;;;;3.70;3.08;;;;;;;26.05;44.61;100060.56;4958251;28;20038;-88
2022/08/02 10:16:02;;;;;;;4.57;3.30;;;;;;;26.10;44.03;100059.88;4976024;28;20138;-84
2022/08/02 10:18:29;;;;;;;4.05;3.65;;;;;;;26.08;43.49;100054.69;4943705;28;20499;-84
2022/08/02 10:21:12;;;;;;;3.92;3.53;;;;;;;26.10;43.28;100054.44;4951357;28;20495;-84
2022/08/02 10:28:52;;;;;;;3.05;2.85;;;;;;;26.12;43.58;100047.69;4960284;28;20038;-89
2022/08/02 10:31:29;;;;;;;3.90;2.78;;;;;;;26.16;41.88;100054.34;4925880;28;20472;-87
2022/08/02 10:38:40;;;;;;;5.10;2.50;;;;;;;26.24;42.10;100041.47;4954696;28;20735;-86
2022/08/02 10:41:07;;;;;;;5.32;3.38;;;;;;;26.25;41.89;100043.94;4953240;28;20055;-87
2022/08/02 10:43:34;;;;;;;3.85;2.88;;;;;;;26.26;41.46;100039.34;4958966;28;20098;-88
2022/08/02 10:46:29;;;;;;;3.13;2.90;;;;;;;26.22;41.54;100030.78;4964350;28;20482;-87
2022/08/02 10:49:12;;;;;;;3.13;2.67;;;;;;;26.30;40.66;100035.88;4978985;28;20073;-88
2022/08/02 10:52:01;;;;;;;3.28;2.78;;;;;;;26.37;40.97;100033.06;4950316;28;20047;-87
2022/08/02 10:54:40;;;;;;;3.20;2.50;;;;;;;26.36;41.27;100029.53;4985507;28;20490;-88
2022/08/02 10:57:17;;;;;;;4.43;3.10;;;;;;;26.42;41.64;100028.56;4955003;28;20046;-85
2022/08/02 10:59:44;;;;;;;3.05;2.75;;;;;;;26.51;41.73;100022.78;4986799;28;20038;-91
2022/08/02 11:02:12;;;;;;;3.90;2.58;;;;;;;26.50;41.42;100027.41;4938337;28;20042;-90
2022/08/02 11:04:42;;;;;;;4.45;3.53;;;;;;;26.45;41.28;100023.72;4967246;28;20769;-90
2022/08/02 11:07:10;;;;;;;4.78;3.20;;;;;;;26.37;41.21;100016.75;4981123;28;20085;-87
2022/08/02 11:09:37;;;;;;;4.00;3.45;;;;;;;26.29;41.12;100011.66;5003039;28;20039;-87
2022/08/02 11:12:06;;;;;;;3.20;2.97;;;;;;;26.31;41.79;100014.97;4983668;28;20042;-85
2022/08/02 11:14:34;;;;;;;4.38;3.97;;;;;;;26.27;41.63;100005.59;4987159;28;20049;-85
2022/08/02 11:17:27;;;;;;;6.03;3.30;;;;;;;26.16;41.39;100008.06;4985581;28;20054;-85
2022/08/02 11:20:09;;;;;;;3.38;3.08;;;;;;;26.20;41.24;100002.97;4952137;28;20050;-87
2022/08/02 11:22:36;;;;;;;;;;;;;;;26.08;41.47;100002.97;4984833;28;20494;-85
2022/08/02 11:25:21;;;;;;;5.40;2.80;;;;;;;26.15;41.38;99997.41;4957406;28;19929;-87
2022/08/02 11:28:01;;;;;;;3.75;3.45;;;;;;;26.19;41.61;100001.31;4983197;28;20046;-87
2022/08/02 11:30:27;;;;;;;2.90;2.70;;;;;;;26.24;42.04;100000.63;4953855;28;20062;-87
2022/08/02 11:32:57;;;;;;;4.65;3.38;;;;;;;26.26;41.77;100006.69;5000164;28;20725;-88
2022/08/02 11:35:31;;;;;;;3.83;3.30;;;;;;;26.27;41.30;99997.44;4968838;28;20554;-87
2022/08/02 11:38:11;;;;;;;6.32;3.25;;;;;;;26.28;41.62;99997.22;4979648;28;20046;-87
2022/08/02 11:40:38;;;;;;;4.80;3.33;;;;;;;26.33;42.05;99993.75;4995648;28;20042;-86
2022/08/02 11:43:15;;;;;;;4.07;3.28;;;;;;;26.31;42.01;99999.47;4986016;28;20057;-86
2022/08/02 11:45:42;;;;;;;6.38;3.20;;;;;;;26.36;42.15;99988.69;4986568;28;20053;-86
2022/08/02 11:48:09;;;;;;;4.20;2.97;;;;;;;26.38;41.89;99988.44;4981995;28;20046;-86
2022/08/02 11:50:36;;;;;;;3.22;2.92;;;;;;;26.36;41.19;99987.88;5017972;28;20054;-87
2022/08/02 11:53:12;;;;;;;3.35;3.05;;;;;;;26.33;41.43;99988.31;4997131;28;20047;-90
2022/08/02 11:55:39;;;;;;;4.03;3.22;;;;;;;26.37;40.86;99984.88;4974691;28;20502;-87
2022/08/02 11:58:08;;;;;;;4.50;3.67;;;;;;;26.45;40.78;99980.97;5017967;28;20045;-88
2022/08/02 12:05:05;;;;;;;3.85;3.08;;;;;;;26.53;40.87;99977.94;4956918;28;20478;-90
2022/08/02 12:07:38;;;;;;;;;;;;;;;26.49;40.96;99990.34;4919694;28;20479;-89
2022/08/02 12:10:18;;;;;;;3.22;2.90;;;;;;;26.69;41.25;99979.13;4952262;28;19929;-88
2022/08/02 12:20:13;;;;;;;3.50;3.05;;;;;;;26.97;40.70;99975.66;4949604;28;20471;-90
2022/08/02 12:22:40;;;;;;;3.70;2.95;;;;;;;27.01;40.05;99974.09;4981807;28;20513;-89
2022/08/02 12:25:17;;;;;;;3.65;3.10;;;;;;;27.01;39.71;99970.53;4993136;28;20100;-90
2022/08/02 12:28:13;;;;;;;3.33;2.60;;;;;;;27.04;39.19;99975.50;4925396;28;20511;-90